Time;durP1;ratioP1;P1;durP2;ratioP2;P2;SDS_P1;SDS_P2;PMS_P1;PMS_P2;Temp;Humidity;BMP_temperature;BMP_pressure;BME280_temperature;BME280_humidity;BME280_pressure;Samples;Min_cycle;Max_cycle;Signal;HPM_P1;HPM_P2
2023/04/12 00:01:03;;;;;;;15.50;13.75;;;6.60;99.90;;;;;;4884215;29;20563;-62
2023/04/12 00:03:32;;;;;;;17.30;15.57;;;6.50;99.90;;;;;;4889962;29;20162;-70
2023/04/12 00:06:02;;;;;;;16.92;14.90;;;6.50;99.90;;;;;;4885985;29;20036;-63
2023/04/12 00:08:31;;;;;;;18.48;14.38;;;6.40;99.90;;;;;;4887814;29;20120;-64
2023/04/12 00:10:59;;;;;;;16.77;13.57;;;6.40;99.90;;;;;;4886358;29;20048;-68
2023/04/12 00:13:27;;;;;;;18.13;16.30;;;6.30;99.90;;;;;;4889001;29;20060;-63
2023/04/12 00:15:54;;;;;;;23.85;17.85;;;6.30;99.90;;;;;;4889918;29;20084;-62
2023/04/12 00:18:24;;;;;;;16.70;15.00;;;6.30;99.90;;;;;;4886216;29;20136;-64
2023/04/12 00:20:52;;;;;;;18.02;14.20;;;6.30;99.90;;;;;;4887998;29;20596;-65
2023/04/12 00:23:19;;;;;;;19.02;16.08;;;6.30;99.90;;;;;;4885335;29;21474;-62
2023/04/12 00:25:47;;;;;;;18.42;16.45;;;6.30;99.90;;;;;;4888003;29;20048;-62
2023/04/12 00:28:14;;;;;;;18.95;16.95;;;6.30;99.90;;;;;;4885534;29;20060;-66
2023/04/12 00:30:42;;;;;;;17.85;15.98;;;6.30;99.90;;;;;;4887122;29;20069;-62
2023/04/12 00:33:09;;;;;;;17.38;15.15;;;6.30;99.90;;;;;;4888768;29;20044;-62
2023/04/12 00:35:36;;;;;;;18.63;16.50;;;6.20;99.90;;;;;;4888981;29;20125;-67
2023/04/12 00:38:05;;;;;;;19.73;17.45;;;6.20;99.90;;;;;;4883252;29;20673;-63
2023/04/12 00:40:32;;;;;;;17.02;15.18;;;6.10;99.90;;;;;;4887744;29;20045;-68
2023/04/12 00:42:59;;;;;;;16.85;13.75;;;6.10;99.90;;;;;;4876047;29;20494;-68
2023/04/12 00:45:26;;;;;;;18.00;16.17;;;6.10;99.90;;;;;;4876338;29;20136;-62
2023/04/12 00:47:55;;;;;;;18.23;16.20;;;6.00;99.90;;;;;;4889512;29;20144;-63
2023/04/12 00:50:22;;;;;;;22.08;15.10;;;6.00;99.90;;;;;;4877641;29;20507;-62
2023/04/12 00:52:50;;;;;;;18.27;16.38;;;6.00;99.90;;;;;;4891521;29;20049;-64
2023/04/12 00:55:18;;;;;;;17.67;13.38;;;6.00;99.90;;;;;;4890949;29;20053;-65
2023/04/12 00:57:45;;;;;;;16.85;15.05;;;6.00;99.90;;;;;;4890869;29;20076;-63
2023/04/12 01:00:12;;;;;;;16.90;15.05;;;5.90;99.90;;;;;;4876769;29;20052;-61
2023/04/12 01:02:49;;;;;;;20.25;15.88;;;5.90;99.90;;;;;;4891606;29;20052;-63
2023/04/12 01:05:22;;;;;;;20.90;16.60;;;5.80;99.90;;;;;;4893326;29;20057;-63
2023/04/12 01:08:42;;;;;;;19.52;15.80;;;5.80;99.90;;;;;;4873031;29;20384;-62
2023/04/12 01:11:27;;;;;;;18.48;14.65;;;5.80;99.90;;;;;;4875557;29;20140;-64
2023/04/12 01:14:12;;;;;;;17.88;15.82;;;5.70;99.90;;;;;;4892637;29;20052;-61
2023/04/12 01:16:49;;;;;;;16.95;14.95;;;5.70;99.90;;;;;;4873337;29;20048;-63
2023/04/12 01:19:46;;;;;;;17.38;15.20;;;5.70;99.90;;;;;;4879040;29;20059;-65
2023/04/12 01:22:28;;;;;;;19.77;17.05;;;5.70;99.90;;;;;;4887232;29;20068;-65
2023/04/12 01:25:23;;;;;;;20.58;15.93;;;5.60;99.90;;;;;;4888748;29;20768;-63
2023/04/12 01:27:56;;;;;;;20.42;16.80;;;5.60;99.90;;;;;;4890166;29;20052;-63
2023/04/12 01:30:26;;;;;;;16.58;14.48;;;5.60;99.90;;;;;;4872660;29;20059;-62
2023/04/12 01:32:55;;;;;;;18.17;15.38;;;5.50;99.90;;;;;;4889679;29;20059;-62
2023/04/12 01:35:28;;;;;;;16.73;15.02;;;5.50;99.90;;;;;;4889630;29;20152;-64
2023/04/12 01:37:57;;;;;;;18.60;15.70;;;5.50;99.90;;;;;;4873017;29;20052;-62
2023/04/12 01:40:26;;;;;;;17.17;15.27;;;5.50;99.90;;;;;;4888372;29;20075;-63
2023/04/12 01:43:03;;;;;;;20.05;15.35;;;5.40;99.90;;;;;;4875957;29;20052;-66
2023/04/12 01:45:31;;;;;;;17.48;14.13;;;5.40;99.90;;;;;;4887128;29;20052;-67
2023/04/12 01:47:59;;;;;;;20.48;15.23;;;5.40;99.90;;;;;;4886227;29;20407;-63
2023/04/12 01:51:02;;;;;;;16.42;14.68;;;5.40;99.90;;;;;;4880983;29;20052;-62
2023/04/12 01:53:47;;;;;;;21.75;16.10;;;5.40;99.90;;;;;;4891205;29;20138;-63
2023/04/12 01:56:16;;;;;;;17.50;15.10;;;5.40;99.90;;;;;;4866283;29;20240;-62
2023/04/12 01:58:46;;;;;;;18.80;15.32;;;5.40;99.90;;;;;;4872505;29;20052;-63
2023/04/12 02:01:14;;;;;;;18.38;16.23;;;5.40;99.90;;;;;;4889283;29;20083;-64
2023/04/12 02:03:42;;;;;;;18.15;15.35;;;5.30;99.90;;;;;;4888502;29;20518;-62
2023/04/12 02:06:10;;;;;;;18.33;15.60;;;5.30;99.90;;;;;;4870948;29;20060;-61
2023/04/12 02:08:37;;;;;;;19.13;17.17;;;5.30;99.90;;;;;;4891811;29;20053;-60
2023/04/12 02:11:10;;;;;;;20.92;15.77;;;5.30;99.90;;;;;;4888747;29;20135;-61
2023/04/12 02:13:37;;;;;;;19.48;16.73;;;5.30;99.90;;;;;;4874992;29;20052;-61
2023/04/12 02:16:06;;;;;;;16.85;14.25;;;5.30;99.90;;;;;;4881055;29;20777;-63
2023/04/12 02:18:36;;;;;;;16.52;14.15;;;5.20;99.90;;;;;;4890931;29;20052;-61
2023/04/12 02:21:05;;;;;;;20.20;15.50;;;5.20;99.90;;;;;;4878167;29;20411;-61
2023/04/12 02:23:33;;;;;;;17.75;14.75;;;5.20;99.90;;;;;;4888837;29;20053;-61
2023/04/12 02:26:00;;;;;;;20.33;14.20;;;5.20;99.90;;;;;;4887391;29;20512;-65
2023/04/12 02:28:27;;;;;;;17.20;15.32;;;5.10;99.90;;;;;;4872577;29;20049;-61
2023/04/12 02:30:54;;;;;;;17.63;14.48;;;5.10;99.90;;;;;;4888248;29;20059;-62
2023/04/12 02:33:24;;;;;;;20.65;14.98;;;5.10;99.90;;;;;;4883410;29;20088;-65
2023/04/12 02:35:54;;;;;;;21.88;16.27;;;5.00;99.90;;;;;;4872447;29;20082;-64
2023/04/12 02:38:22;;;;;;;19.83;15.35;;;5.00;99.90;;;;;;4866860;29;20059;-61
2023/04/12 02:40:49;;;;;;;19.58;16.60;;;5.00;99.90;;;;;;4886499;29;20072;-62
2023/04/12 02:43:17;;;;;;;18.52;14.57;;;5.00;99.90;;;;;;4870190;29;20057;-63
2023/04/12 02:45:49;;;;;;;19.08;15.55;;;5.00;99.90;;;;;;4885611;29;20052;-62
2023/04/12 02:48:15;;;;;;;17.60;15.63;;;4.90;99.90;;;;;;4886048;29;20052;-61
2023/04/12 02:50:43;;;;;;;17.83;14.00;;;4.90;99.90;;;;;;4884914;29;20048;-62
2023/04/12 02:53:16;;;;;;;21.13;15.40;;;4.90;99.90;;;;;;4888487;29;20052;-62
2023/04/12 02:55:48;;;;;;;18.70;15.68;;;4.90;99.90;;;;;;4875407;29;20104;-60
2023/04/12 02:58:20;;;;;;;17.33;14.85;;;4.90;99.90;;;;;;4877844;29;20048;-62
2023/04/12 03:00:49;;;;;;;17.77;15.10;;;4.80;99.90;;;;;;4886703;29;20058;-61
2023/04/12 03:03:23;;;;;;;20.73;16.92;;;4.80;99.90;;;;;;4890587;29;20125;-62
2023/04/12 03:05:54;;;;;;;21.05;16.42;;;4.80;99.90;;;;;;4872960;29;20053;-62
2023/04/12 03:08:21;;;;;;;18.15;14.98;;;4.80;99.90;;;;;;4883918;29;20144;-63
2023/04/12 03:10:51;;;;;;;19.63;15.20;;;4.70;99.90;;;;;;4890640;29;20059;-62
2023/04/12 03:13:19;;;;;;;19.65;15.23;;;4.80;99.90;;;;;;4887896;29;20068;-62
2023/04/12 03:15:53;;;;;;;19.70;15.77;;;4.70;99.90;;;;;;4888547;29;20551;-62
2023/04/12 03:18:22;;;;;;;22.05;16.27;;;4.70;99.90;;;;;;4868981;29;20091;-66
2023/04/12 03:20:51;;;;;;;20.02;14.55;;;4.70;99.90;;;;;;4874641;29;20426;-60
2023/04/12 03:23:19;;;;;;;19.67;15.80;;;4.60;99.90;;;;;;4887813;29;20800;-61
2023/04/12 03:25:52;;;;;;;17.98;14.82;;;4.60;99.90;;;;;;4886476;29;20135;-65
2023/04/12 03:28:33;;;;;;;17.20;14.52;;;4.60;99.90;;;;;;4884227;29;20056;-64
2023/04/12 03:31:02;;;;;;;23.67;16.90;;;4.60;99.90;;;;;;4877777;29;20505;-61
2023/04/12 03:33:44;;;;;;;20.52;16.85;;;4.60;99.90;;;;;;4872354;29;20586;-61
2023/04/12 03:36:20;;;;;;;22.02;15.63;;;4.60;99.90;;;;;;4886050;29;20472;-62
2023/04/12 03:38:52;;;;;;;23.75;16.95;;;4.60;99.90;;;;;;4871154;29;20063;-61
2023/04/12 03:41:22;;;;;;;20.55;16.63;;;4.60;99.90;;;;;;4887972;29;20053;-63
2023/04/12 03:43:49;;;;;;;20.75;16.92;;;4.60;99.90;;;;;;4876807;29;20503;-66
2023/04/12 03:46:17;;;;;;;20.15;17.77;;;4.60;99.90;;;;;;4885560;29;20565;-62
2023/04/12 03:48:51;;;;;;;22.25;17.48;;;4.50;99.90;;;;;;4870872;29;20072;-61
2023/04/12 03:51:21;;;;;;;23.73;17.92;;;4.60;99.90;;;;;;4880363;29;20063;-61
2023/04/12 03:53:48;;;;;;;21.83;17.75;;;4.50;99.90;;;;;;4885279;29;20044;-61
2023/04/12 03:56:15;;;;;;;24.25;18.50;;;4.50;99.90;;;;;;4884019;29;20108;-61
2023/04/12 03:58:46;;;;;;;20.48;16.67;;;4.50;99.90;;;;;;4883596;29;20889;-62
2023/04/12 04:01:16;;;;;;;21.92;17.27;;;4.50;99.90;;;;;;4884794;29;20427;-63
2023/04/12 04:03:44;;;;;;;29.65;17.30;;;4.60;99.90;;;;;;4885793;29;20052;-65
2023/04/12 04:06:19;;;;;;;18.40;16.10;;;4.60;99.90;;;;;;4872790;29;20132;-62
2023/04/12 04:08:46;;;;;;;22.25;18.13;;;4.50;99.90;;;;;;4881711;29;20567;-61
2023/04/12 04:11:13;;;;;;;21.40;16.15;;;4.50;99.90;;;;;;4884147;29;20057;-61
2023/04/12 04:13:45;;;;;;;;;;;4.50;99.90;;;;;;4879759;29;20061;-61
2023/04/12 04:16:17;;;;;;;19.23;15.30;;;4.50;99.90;;;;;;4881492;29;19966;-62
2023/04/12 04:18:45;;;;;;;22.90;16.58;;;4.40;99.90;;;;;;4881643;29;20140;-61
2023/04/12 04:21:14;;;;;;;22.80;16.77;;;4.40;99.90;;;;;;4885567;29;20420;-65
2023/04/12 04:23:43;;;;;;;22.80;16.17;;;4.40;99.90;;;;;;4879135;29;20052;-61
2023/04/12 04:26:11;;;;;;;20.60;18.40;;;4.40;99.90;;;;;;4887919;29;20056;-63
2023/04/12 04:28:45;;;;;;;22.13;17.33;;;4.40;99.90;;;;;;4888281;29;20412;-62
2023/04/12 04:31:16;;;;;;;25.88;17.55;;;4.50;99.90;;;;;;4880334;29;20072;-62
2023/04/12 04:33:48;;;;;;;23.00;17.23;;;4.40;99.90;;;;;;4890107;29;20139;-63
2023/04/12 04:36:15;;;;;;;22.67;17.70;;;4.50;99.90;;;;;;4889246;29;20053;-61
2023/04/12 04:38:47;;;;;;;21.52;17.50;;;4.40;99.90;;;;;;4872782;29;20087;-64
2023/04/12 04:41:25;;;;;;;23.23;16.25;;;4.50;99.90;;;;;;4890382;29;20049;-62
2023/04/12 04:43:56;;;;;;;19.50;17.35;;;4.50;99.90;;;;;;4884736;29;20788;-62
2023/04/12 04:46:29;;;;;;;;;;;4.40;99.90;;;;;;4874094;29;20520;-63
2023/04/12 04:48:57;;;;;;;24.73;16.73;;;4.50;99.90;;;;;;4890308;29;19930;-63
2023/04/12 04:51:24;;;;;;;23.77;18.95;;;4.50;99.90;;;;;;4890601;29;20053;-67
2023/04/12 04:53:53;;;;;;;22.88;18.85;;;4.50;99.90;;;;;;4891361;29;20068;-61
2023/04/12 04:56:23;;;;;;;24.70;17.88;;;4.50;99.90;;;;;;4887011;29;20060;-63
2023/04/12 04:58:52;;;;;;;23.20;18.95;;;4.50;99.90;;;;;;4890221;29;20063;-62
2023/04/12 05:01:28;;;;;;;23.73;18.27;;;4.60;99.90;;;;;;4883008;29;20171;-61
2023/04/12 05:03:57;;;;;;;24.35;19.13;;;4.60;99.90;;;;;;4887798;29;20170;-61
2023/04/12 05:06:26;;;;;;;24.85;19.95;;;4.70;99.90;;;;;;4875278;29;20807;-62
2023/04/12 05:08:55;;;;;;;23.08;18.95;;;4.70;99.90;;;;;;4891059;29;20044;-62
2023/04/12 05:11:22;;;;;;;26.33;22.02;;;4.80;99.90;;;;;;4871507;29;20063;-63
2023/04/12 05:13:50;;;;;;;25.83;20.20;;;4.80;99.90;;;;;;4871353;29;20443;-62
2023/04/12 05:16:17;;;;;;;29.25;21.92;;;4.90;99.90;;;;;;4873941;29;20492;-63
2023/04/12 05:18:44;;;;;;;22.60;18.35;;;5.00;99.90;;;;;;4887209;29;20692;-60
2023/04/12 05:21:11;;;;;;;24.45;19.85;;;5.00;99.90;;;;;;4886355;29;20522;-62
2023/04/12 05:23:43;;;;;;;25.17;19.25;;;5.00;99.90;;;;;;4889289;29;20060;-66
2023/04/12 05:26:12;;;;;;;25.27;19.25;;;5.10;99.90;;;;;;4886765;29;20414;-64
2023/04/12 05:28:41;;;;;;;25.33;19.10;;;5.10;99.90;;;;;;4885733;29;20072;-61
2023/04/12 05:31:09;;;;;;;26.83;21.17;;;5.10;99.90;;;;;;4881859;29;20834;-62
2023/04/12 05:33:37;;;;;;;28.50;20.45;;;5.20;99.90;;;;;;4888497;29;20085;-63
2023/04/12 05:36:05;;;;;;;26.73;21.88;;;5.30;99.90;;;;;;4884470;29;20080;-61
2023/04/12 05:38:32;;;;;;;26.70;22.13;;;5.30;99.90;;;;;;4887802;29;20508;-63
2023/04/12 05:41:04;;;;;;;24.27;20.33;;;5.40;99.90;;;;;;4883531;29;20083;-65
2023/04/12 05:43:32;;;;;;;26.92;20.88;;;5.40;99.90;;;;;;4873039;29;20147;-61
2023/04/12 05:45:59;;;;;;;28.40;22.02;;;5.50;99.90;;;;;;4884864;29;20515;-63
2023/04/12 05:48:27;;;;;;;25.63;21.38;;;5.50;99.90;;;;;;4887920;29;20068;-64
2023/04/12 05:50:56;;;;;;;25.90;19.77;;;5.60;99.90;;;;;;4889885;29;20360;-62
2023/04/12 05:53:23;;;;;;;26.70;20.58;;;5.60;99.90;;;;;;4887167;29;20045;-61
2023/04/12 05:55:50;;;;;;;26.63;20.40;;;5.60;99.90;;;;;;4869685;29;20044;-65
2023/04/12 05:58:18;;;;;;;25.20;19.70;;;5.70;99.90;;;;;;4886718;29;20056;-62
2023/04/12 06:00:48;;;;;;;25.13;20.23;;;5.80;99.90;;;;;;4872285;29;20061;-65
2023/04/12 06:03:15;;;;;;;26.95;20.80;;;5.80;99.90;;;;;;4889067;29;20132;-64
2023/04/12 06:05:43;;;;;;;26.60;21.58;;;5.90;99.90;;;;;;4889809;29;20080;-65
2023/04/12 06:08:13;;;;;;;24.70;20.67;;;6.00;99.90;;;;;;4883950;29;20052;-61
2023/04/12 06:10:41;;;;;;;25.98;20.05;;;6.00;99.90;;;;;;4868287;29;20114;-61
2023/04/12 06:13:08;;;;;;;25.83;21.52;;;6.10;99.90;;;;;;4883806;29;20061;-64
2023/04/12 06:15:39;;;;;;;26.40;20.75;;;6.20;99.90;;;;;;4868647;29;20426;-64
2023/04/12 06:18:06;;;;;;;27.27;21.15;;;6.30;99.90;;;;;;4884303;29;20516;-62
2023/04/12 06:20:33;;;;;;;27.17;19.85;;;6.40;99.90;;;;;;4870335;29;20422;-63
2023/04/12 06:23:00;;;;;;;25.45;19.17;;;6.50;99.90;;;;;;4884459;29;20162;-62
2023/04/12 06:25:27;;;;;;;23.48;18.73;;;6.60;99.90;;;;;;4870042;29;20069;-61
2023/04/12 06:27:56;;;;;;;26.52;20.73;;;6.60;99.90;;;;;;4873659;29;20072;-61
2023/04/12 06:30:24;;;;;;;25.83;20.55;;;6.70;99.90;;;;;;4869172;29;20077;-61
2023/04/12 06:32:52;;;;;;;26.98;20.45;;;6.70;99.90;;;;;;4872575;29;20045;-62
2023/04/12 06:35:21;;;;;;;22.23;19.85;;;6.80;99.90;;;;;;4882145;29;20509;-62
2023/04/12 06:37:48;;;;;;;21.58;17.75;;;6.90;99.90;;;;;;4884565;29;20422;-61
2023/04/12 06:40:15;;;;;;;23.02;20.08;;;7.00;99.90;;;;;;4868430;29;20057;-66
2023/04/12 06:42:42;;;;;;;21.27;18.98;;;7.10;99.90;;;;;;4871749;29;20045;-63
2023/04/12 06:45:10;;;;;;;22.38;19.38;;;7.20;99.90;;;;;;4874914;29;20048;-61
2023/04/12 06:47:37;;;;;;;25.13;17.55;;;7.30;99.90;;;;;;4867013;29;20175;-61
2023/04/12 06:50:05;;;;;;;23.00;17.65;;;7.40;99.90;;;;;;4868213;29;20137;-61
2023/04/12 06:52:32;;;;;;;23.35;19.55;;;7.50;99.90;;;;;;4872143;29;20498;-66
2023/04/12 06:54:59;;;;;;;26.98;18.88;;;7.60;99.90;;;;;;4869859;29;20049;-62
2023/04/12 06:57:26;;;;;;;19.92;16.63;;;7.70;99.90;;;;;;4869021;29;20084;-62
2023/04/12 06:59:53;;;;;;;19.05;15.82;;;7.80;99.90;;;;;;4869052;29;20057;-63
2023/04/12 07:02:20;;;;;;;20.45;17.23;;;7.90;99.90;;;;;;4868732;29;20049;-61
2023/04/12 07:04:51;;;;;;;23.33;18.33;;;8.00;99.90;;;;;;4871981;29;20087;-62
2023/04/12 07:07:19;;;;;;;20.95;17.40;;;8.20;99.90;;;;;;4872141;29;20064;-62
2023/04/12 07:09:46;;;;;;;17.55;15.70;;;8.30;99.90;;;;;;4889443;29;20063;-62
2023/04/12 07:12:13;;;;;;;23.63;16.85;;;8.40;99.90;;;;;;4884243;29;20063;-61
2023/04/12 07:14:40;;;;;;;21.65;15.20;;;8.50;99.90;;;;;;4889947;29;20107;-64
2023/04/12 07:17:10;;;;;;;15.93;14.32;;;8.60;99.90;;;;;;4888663;29;20088;-61
2023/04/12 07:19:38;;;;;;;21.25;15.15;;;8.70;99.90;;;;;;4888448;29;20299;-65
2023/04/12 07:22:05;;;;;;;20.35;16.40;;;8.80;99.90;;;;;;4886069;29;20135;-63
2023/04/12 07:24:32;;;;;;;17.60;14.10;;;8.90;99.90;;;;;;4889100;29;20052;-62
2023/04/12 07:26:59;;;;;;;15.88;13.15;;;9.00;99.90;;;;;;4871941;29;20055;-63
2023/04/12 07:29:25;;;;;;;20.33;15.70;;;9.10;99.90;;;;;;4890850;29;20144;-62
2023/04/12 07:31:52;;;;;;;16.80;13.07;;;9.20;99.90;;;;;;4888132;29;20048;-62
2023/04/12 07:34:19;;;;;;;15.98;12.35;;;9.40;99.90;;;;;;4886989;29;20059;-62
2023/04/12 07:36:46;;;;;;;18.23;16.10;;;9.50;99.90;;;;;;4883611;29;20780;-66
2023/04/12 07:39:13;;;;;;;19.23;14.13;;;9.50;99.90;;;;;;4885250;29;20054;-62
2023/04/12 07:41:45;;;;;;;23.52;16.42;;;9.40;99.90;;;;;;4889331;29;20059;-62
2023/04/12 07:44:11;;;;;;;21.50;15.43;;;9.20;99.90;;;;;;4886527;29;20048;-63
2023/04/12 07:46:40;;;;;;;33.90;17.88;;;9.10;99.90;;;;;;4888325;29;20053;-62
2023/04/12 07:49:09;;;;;;;26.10;17.80;;;9.20;99.90;;;;;;4888391;29;20084;-61
2023/04/12 07:51:36;;;;;;;18.40;15.70;;;9.20;99.90;;;;;;4887243;29;20112;-63
2023/04/12 07:54:03;;;;;;;26.70;16.70;;;9.20;99.90;;;;;;4887137;29;20070;-62
2023/04/12 07:56:33;;;;;;;24.92;15.05;;;9.30;99.90;;;;;;4890294;29;20140;-62
2023/04/12 07:59:01;;;;;;;35.95;17.33;;;9.40;99.90;;;;;;4887631;29;20123;-63
2023/04/12 08:01:27;;;;;;;45.60;16.52;;;9.60;99.90;;;;;;4893123;29;20064;-63
2023/04/12 08:03:54;;;;;;;28.73;15.80;;;9.70;99.90;;;;;;4894418;29;20153;-62
2023/04/12 08:06:22;;;;;;;41.38;18.83;;;9.80;99.90;;;;;;4892391;29;20530;-63
2023/04/12 08:08:49;;;;;;;22.25;15.93;;;9.80;99.90;;;;;;4889830;29;20049;-62
2023/04/12 08:11:15;;;;;;;24.60;15.85;;;9.90;99.90;;;;;;4891947;29;20061;-62
2023/04/12 08:13:42;;;;;;;21.13;12.32;;;10.00;99.90;;;;;;4891218;29;20048;-63
2023/04/12 08:16:09;;;;;;;25.27;16.17;;;10.20;99.90;;;;;;4890227;29;20057;-62
2023/04/12 08:18:36;;;;;;;27.65;15.30;;;10.30;99.90;;;;;;4891411;29;20075;-63
2023/04/12 08:21:03;;;;;;;40.72;16.13;;;10.40;99.90;;;;;;4891144;29;20063;-65
2023/04/12 08:23:30;;;;;;;24.58;14.27;;;10.50;99.90;;;;;;4891661;29;20501;-64
2023/04/12 08:26:02;;;;;;;29.45;15.70;;;10.50;99.90;;;;;;4886991;29;20488;-62
2023/04/12 08:28:30;;;;;;;17.48;12.88;;;10.60;99.90;;;;;;4891556;29;20131;-62
2023/04/12 08:30:57;;;;;;;20.00;14.23;;;10.70;99.90;;;;;;4890767;29;20048;-63
2023/04/12 08:33:25;;;;;;;21.65;13.73;;;11.00;99.90;;;;;;4889876;29;20107;-63
2023/04/12 08:35:52;;;;;;;15.93;14.20;;;11.20;99.90;;;;;;4885985;29;20056;-61
2023/04/12 08:38:19;;;;;;;19.67;13.77;;;11.40;99.90;;;;;;4889326;29;20060;-62
2023/04/12 08:40:57;;;;;;;17.75;13.18;;;11.60;99.90;;;;;;4892656;29;20076;-64
2023/04/12 08:43:28;;;;;;;14.50;12.50;;;11.80;99.90;;;;;;4891294;29;20056;-65
2023/04/12 08:45:57;;;;;;;14.57;12.45;;;11.80;99.90;;;;;;4887489;29;20646;-63
2023/04/12 08:48:25;;;;;;;15.68;13.43;;;11.80;99.90;;;;;;4889299;29;20052;-68
2023/04/12 08:50:53;;;;;;;16.98;13.13;;;11.90;99.90;;;;;;4889712;29;20059;-61
2023/04/12 08:53:20;;;;;;;15.35;12.95;;;12.10;99.90;;;;;;4890292;29;20137;-63
2023/04/12 08:55:47;;;;;;;15.30;13.68;;;12.30;99.90;;;;;;4890846;29;20513;-64
2023/04/12 08:58:14;;;;;;;15.52;13.52;;;12.50;99.90;;;;;;4888516;29;20056;-63
2023/04/12 09:00:43;;;;;;;15.35;13.75;;;12.70;99.90;;;;;;4890861;29;20060;-63
2023/04/12 09:03:10;;;;;;;20.15;14.15;;;12.80;99.90;;;;;;4889595;29;20088;-63
2023/04/12 09:05:37;;;;;;;14.90;13.38;;;13.00;99.90;;;;;;4890596;29;20056;-64
2023/04/12 09:08:04;;;;;;;19.25;10.55;;;13.10;99.90;;;;;;4888444;29;20088;-64
2023/04/12 09:10:38;;;;;;;10.02;8.00;;;12.90;99.90;;;;;;4891524;29;20076;-63
2023/04/12 09:13:05;;;;;;;9.65;8.55;;;11.80;99.90;;;;;;4890675;29;20060;-62
2023/04/12 09:15:33;;;;;;;20.05;9.93;;;11.30;99.90;;;;;;4892153;29;20044;-66
2023/04/12 09:18:10;;;;;;;14.40;12.00;;;10.70;99.90;;;;;;4888344;29;20080;-64
2023/04/12 09:20:38;;;;;;;15.68;11.45;;;9.50;99.90;;;;;;4890872;29;20086;-64
2023/04/12 09:23:20;;;;;;;22.30;10.73;;;9.10;99.90;;;;;;4889663;29;20074;-66
2023/04/12 09:25:50;;;;;;;20.55;10.75;;;8.90;99.90;;;;;;4889938;29;20110;-64
2023/04/12 09:28:28;;;;;;;22.15;10.98;;;9.00;99.90;;;;;;4887449;29;20056;-63
2023/04/12 09:30:57;;;;;;;18.45;10.93;;;8.70;99.90;;;;;;4887025;29;20045;-62
2023/04/12 09:33:36;;;;;;;18.13;11.93;;;8.60;99.90;;;;;;4889624;29;20131;-63
2023/04/12 09:36:04;;;;;;;22.08;12.35;;;8.60;99.90;;;;;;4885488;29;20096;-62
2023/04/12 09:38:32;;;;;;;15.35;10.05;;;8.80;99.90;;;;;;4889705;29;20399;-61
2023/04/12 09:41:19;;;;;;;26.05;11.43;;;8.80;99.90;;;;;;4891480;29;20062;-63
2023/04/12 09:43:52;;;;;;;15.77;7.15;;;8.60;99.90;;;;;;4886008;29;20072;-62
2023/04/12 09:46:19;;;;;;;15.38;7.35;;;8.40;99.90;;;;;;4887816;29;20048;-62
2023/04/12 09:48:53;;;;;;;16.80;8.98;;;8.20;99.90;;;;;;4888693;29;20051;-63
2023/04/12 09:51:29;;;;;;;14.80;8.98;;;8.30;99.90;;;;;;4890384;29;20149;-66
2023/04/12 09:54:04;;;;;;;12.80;8.57;;;8.30;99.90;;;;;;4887598;29;20056;-65
2023/04/12 09:56:34;;;;;;;9.68;8.55;;;8.30;99.90;;;;;;4890191;29;20207;-63
2023/04/12 09:59:04;;;;;;;12.52;6.85;;;8.40;99.90;;;;;;4890364;29;20056;-65
2023/04/12 10:01:37;;;;;;;10.38;8.27;;;8.40;99.90;;;;;;4886862;29;20048;-64
2023/04/12 10:04:06;;;;;;;10.45;7.95;;;8.50;99.90;;;;;;4886246;29;20063;-62
2023/04/12 10:06:40;;;;;;;16.98;9.57;;;8.60;99.90;;;;;;4889591;29;20110;-62
2023/04/12 10:09:07;;;;;;;11.85;7.45;;;8.70;99.90;;;;;;4887420;29;20063;-62
2023/04/12 10:11:36;;;;;;;11.10;8.13;;;8.70;99.90;;;;;;4886601;29;20044;-63
2023/04/12 10:14:04;;;;;;;11.95;8.10;;;8.60;99.90;;;;;;4872838;29;20061;-62
2023/04/12 10:16:33;;;;;;;14.02;8.32;;;8.80;99.90;;;;;;4885529;29;20052;-65
2023/04/12 10:19:03;;;;;;;11.02;7.35;;;8.90;99.90;;;;;;4887138;29;20045;-63
2023/04/12 10:21:30;;;;;;;14.13;8.95;;;9.00;99.90;;;;;;4883955;29;20762;-63
2023/04/12 10:23:58;;;;;;;10.73;7.90;;;8.90;99.90;;;;;;4887512;29;20163;-64
2023/04/12 10:26:25;;;;;;;12.52;9.27;;;8.90;99.90;;;;;;4888974;29;20048;-61
2023/04/12 10:29:26;;;;;;;10.65;7.47;;;8.90;99.90;;;;;;4885004;29;20048;-61
2023/04/12 10:31:54;;;;;;;10.25;6.63;;;9.00;99.90;;;;;;4866008;29;20494;-63
2023/04/12 10:34:29;;;;;;;13.75;9.25;;;8.70;99.90;;;;;;4885944;29;20045;-62
2023/04/12 10:36:58;;;;;;;14.82;8.48;;;8.80;99.90;;;;;;4885475;29;20048;-62
2023/04/12 10:39:42;;;;;;;13.87;11.53;;;8.90;99.90;;;;;;4891405;29;20062;-64
2023/04/12 10:42:26;;;;;;;24.77;11.13;;;8.90;99.90;;;;;;4883186;29;20778;-64
2023/04/12 10:44:55;;;;;;;12.27;10.63;;;9.10;99.90;;;;;;4882647;29;20551;-66
2023/04/12 10:47:47;;;;;;;12.18;10.00;;;9.40;99.90;;;;;;4886039;29;20063;-62
2023/04/12 10:50:25;;;;;;;17.58;10.80;;;9.50;99.90;;;;;;4884304;29;20080;-64
2023/04/12 10:53:11;;;;;;;15.43;7.25;;;9.80;99.90;;;;;;4878032;29;20045;-67
2023/04/12 10:55:39;;;;;;;13.65;9.00;;;9.60;99.90;;;;;;4887295;29;20052;-63
2023/04/12 10:58:05;;;;;;;14.30;9.68;;;9.60;99.90;;;;;;4885753;29;20103;-62
2023/04/12 11:00:54;;;;;;;18.23;10.20;;;9.80;99.90;;;;;;4886700;29;20084;-63
2023/04/12 11:03:22;;;;;;;18.70;10.93;;;9.80;99.90;;;;;;4887768;29;20419;-63
2023/04/12 11:05:59;;;;;;;17.65;10.93;;;10.10;99.90;;;;;;4887557;29;20414;-62
2023/04/12 11:09:05;;;;;;;14.00;9.43;;;11.20;99.90;;;;;;4886039;29;20055;-63
2023/04/12 11:11:33;;;;;;;17.08;9.40;;;12.20;99.90;;;;;;4887731;29;20064;-63
2023/04/12 11:14:01;;;;;;;14.90;11.10;;;13.00;99.90;;;;;;4884722;29;20047;-66
2023/04/12 11:16:28;;;;;;;14.00;11.10;;;13.50;99.90;;;;;;4885550;29;20098;-63
2023/04/12 11:18:55;;;;;;;12.10;9.63;;;14.00;99.90;;;;;;4888853;29;20135;-61
2023/04/12 11:21:23;;;;;;;11.75;9.52;;;14.40;99.90;;;;;;4880303;29;20135;-60
2023/04/12 11:23:52;;;;;;;9.63;8.68;;;14.80;99.90;;;;;;4886855;29;20056;-61
2023/04/12 11:26:20;;;;;;;14.30;8.18;;;15.10;99.90;;;;;;4885885;29;20057;-61
2023/04/12 11:28:51;;;;;;;15.70;8.65;;;15.30;99.90;;;;;;4886471;29;20048;-61
2023/04/12 11:31:20;;;;;;;17.17;9.43;;;13.70;99.90;;;;;;4885631;29;20082;-62
2023/04/12 11:33:47;;;;;;;13.93;9.35;;;13.20;99.90;;;;;;4886138;29;20064;-65
2023/04/12 11:36:14;;;;;;;19.98;10.50;;;12.90;99.90;;;;;;4886123;29;20177;-61
2023/04/12 11:38:44;;;;;;;25.70;9.13;;;12.70;99.90;;;;;;4887583;29;20978;-61
2023/04/12 11:41:13;;;;;;;13.85;8.95;;;12.30;99.90;;;;;;4887519;29;20128;-63
2023/04/12 11:43:41;;;;;;;15.48;10.68;;;12.40;99.90;;;;;;4887325;29;20426;-62
2023/04/12 11:46:08;;;;;;;14.98;10.98;;;12.40;99.90;;;;;;4886512;29;20057;-61
2023/04/12 11:48:37;;;;;;;12.80;9.95;;;12.90;99.90;;;;;;4887980;29;20048;-61
2023/04/12 11:51:35;;;;;;;11.02;9.82;;;13.40;99.90;;;;;;4888473;29;20053;-61
2023/04/12 11:54:03;;;;;;;10.82;9.70;;;14.10;99.90;;;;;;4875454;29;20060;-63
2023/04/12 11:56:31;;;;;;;9.73;8.40;;;14.80;99.90;;;;;;4887176;29;20353;-61
2023/04/12 11:58:58;;;;;;;11.95;9.52;;;15.20;99.90;;;;;;4888493;29;20600;-65
2023/04/12 12:01:26;;;;;;;11.25;8.48;;;15.50;99.90;;;;;;4886535;29;20052;-61
2023/04/12 12:03:54;;;;;;;17.35;8.23;;;15.80;99.90;;;;;;4883205;29;20107;-62
2023/04/12 12:06:22;;;;;;;12.18;8.65;;;14.90;99.90;;;;;;4886444;29;20063;-63
2023/04/12 12:08:51;;;;;;;14.43;10.50;;;14.40;99.90;;;;;;4888048;29;20159;-61
2023/04/12 12:11:22;;;;;;;11.88;10.05;;;14.40;99.90;;;;;;4887561;29;20058;-62
2023/04/12 12:13:52;;;;;;;16.73;10.90;;;14.80;99.90;;;;;;4887788;29;20144;-64
2023/04/12 12:16:27;;;;;;;12.98;9.75;;;15.30;99.90;;;;;;4885899;29;20056;-63
2023/04/12 12:18:55;;;;;;;21.08;10.73;;;15.80;99.90;;;;;;4890037;29;20048;-64
2023/04/12 12:21:22;;;;;;;10.52;9.38;;;16.10;99.90;;;;;;4886661;29;20059;-62
2023/04/12 12:23:49;;;;;;;11.95;9.02;;;16.40;99.90;;;;;;4887587;29;20048;-62
2023/04/12 12:26:24;;;;;;;9.93;8.88;;;16.50;99.90;;;;;;4888187;29;20091;-62
2023/04/12 12:28:53;;;;;;;9.48;7.55;;;16.80;99.90;;;;;;4893920;29;20052;-62
2023/04/12 12:31:22;;;;;;;10.18;8.57;;;16.90;99.90;;;;;;4888003;29;20048;-61
2023/04/12 12:33:55;;;;;;;9.90;7.93;;;16.90;99.90;;;;;;4887086;29;20611;-61
2023/04/12 12:36:30;;;;;;;9.50;8.15;;;16.80;99.90;;;;;;4886280;29;20074;-62
2023/04/12 12:39:09;;;;;;;14.40;8.85;;;16.90;99.90;;;;;;4890348;29;20040;-64
2023/04/12 12:41:38;;;;;;;12.27;8.90;;;17.00;99.90;;;;;;4888748;29;20555;-65
2023/04/12 12:44:06;;;;;;;9.25;8.27;;;17.00;99.90;;;;;;4889249;29;20371;-63
2023/04/12 12:46:33;;;;;;;11.15;9.05;;;17.00;99.90;;;;;;4891463;29;20064;-66
2023/04/12 12:49:03;;;;;;;10.48;9.07;;;17.00;99.90;;;;;;4891010;29;20519;-62
2023/04/12 12:51:30;;;;;;;16.23;9.07;;;16.90;99.90;;;;;;4890446;29;20143;-62
2023/04/12 12:53:57;;;;;;;11.15;9.63;;;16.90;99.90;;;;;;4891097;29;20147;-62